sensor_id;sensor_type;location;lat;lon;timestamp;pressure;altitude;pressure_sealevel;temperature;humidity
51147;BME280;37207;53.060;18.726;2022-12-07T00:01:20;100057.02;;;2.55;95.53
51147;BME280;37207;53.060;18.726;2022-12-07T00:03:48;100060.98;;;2.53;95.76
51147;BME280;37207;53.060;18.726;2022-12-07T00:06:16;100061.63;;;2.50;95.57
51147;BME280;37207;53.060;18.726;2022-12-07T00:08:43;100059.87;;;2.46;95.59
51147;BME280;37207;53.060;18.726;2022-12-07T00:11:14;100059.33;;;2.43;95.65
51147;BME280;37207;53.060;18.726;2022-12-07T00:13:41;100061.08;;;2.43;95.63
51147;BME280;37207;53.060;18.726;2022-12-07T00:16:16;100058.85;;;2.42;95.72
51147;BME280;37207;53.060;18.726;2022-12-07T00:18:44;100054.75;;;2.43;95.77
51147;BME280;37207;53.060;18.726;2022-12-07T00:21:11;100051.85;;;2.44;95.86
51147;BME280;37207;53.060;18.726;2022-12-07T00:23:39;100050.42;;;2.44;95.90
51147;BME280;37207;53.060;18.726;2022-12-07T00:28:45;100051.42;;;2.47;95.98
51147;BME280;37207;53.060;18.726;2022-12-07T00:31:13;100051.18;;;2.48;95.87
51147;BME280;37207;53.060;18.726;2022-12-07T00:33:40;100051.49;;;2.48;95.94
51147;BME280;37207;53.060;18.726;2022-12-07T00:36:09;100048.06;;;2.50;95.98
51147;BME280;37207;53.060;18.726;2022-12-07T00:38:37;100049.86;;;2.52;95.99
51147;BME280;37207;53.060;18.726;2022-12-07T00:41:16;100046.00;;;2.54;96.06
51147;BME280;37207;53.060;18.726;2022-12-07T00:43:44;100041.85;;;2.54;96.01
51147;BME280;37207;53.060;18.726;2022-12-07T00:46:12;100044.25;;;2.54;95.97
51147;BME280;37207;53.060;18.726;2022-12-07T00:48:38;100037.15;;;2.57;96.12
51147;BME280;37207;53.060;18.726;2022-12-07T00:51:06;100038.40;;;2.57;95.93
51147;BME280;37207;53.060;18.726;2022-12-07T00:53:36;100035.55;;;2.56;95.82
51147;BME280;37207;53.060;18.726;2022-12-07T00:56:08;100041.88;;;2.53;95.47
51147;BME280;37207;53.060;18.726;2022-12-07T00:58:34;100043.67;;;2.51;95.54
51147;BME280;37207;53.060;18.726;2022-12-07T01:01:02;100037.11;;;2.49;95.58
51147;BME280;37207;53.060;18.726;2022-12-07T01:03:30;100039.09;;;2.46;95.44
51147;BME280;37207;53.060;18.726;2022-12-07T01:05:57;100037.94;;;2.43;95.47
51147;BME280;37207;53.060;18.726;2022-12-07T01:08:25;100040.09;;;2.42;95.57
51147;BME280;37207;53.060;18.726;2022-12-07T01:11:04;100039.61;;;2.40;95.48
51147;BME280;37207;53.060;18.726;2022-12-07T01:13:32;100035.47;;;2.38;95.48
51147;BME280;37207;53.060;18.726;2022-12-07T01:16:00;100033.98;;;2.34;95.39
51147;BME280;37207;53.060;18.726;2022-12-07T01:18:28;100030.14;;;2.32;95.47
51147;BME280;37207;53.060;18.726;2022-12-07T01:21:04;100027.73;;;2.30;95.41
51147;BME280;37207;53.060;18.726;2022-12-07T01:23:32;100023.83;;;2.26;95.30
51147;BME280;37207;53.060;18.726;2022-12-07T01:26:02;100016.09;;;2.23;95.28
51147;BME280;37207;53.060;18.726;2022-12-07T01:28:29;100011.16;;;2.21;95.32
51147;BME280;37207;53.060;18.726;2022-12-07T01:30:57;100011.44;;;2.20;95.31
51147;BME280;37207;53.060;18.726;2022-12-07T01:33:23;100011.71;;;2.18;95.27
51147;BME280;37207;53.060;18.726;2022-12-07T01:35:50;100004.17;;;2.18;95.36
51147;BME280;37207;53.060;18.726;2022-12-07T01:38:16;100002.43;;;2.19;95.51
51147;BME280;37207;53.060;18.726;2022-12-07T01:40:43;100000.08;;;2.20;95.42
51147;BME280;37207;53.060;18.726;2022-12-07T01:43:17;99997.94;;;2.18;95.34
51147;BME280;37207;53.060;18.726;2022-12-07T01:45:45;99994.23;;;2.17;95.38
51147;BME280;37207;53.060;18.726;2022-12-07T01:48:14;99994.67;;;2.18;95.50
51147;BME280;37207;53.060;18.726;2022-12-07T01:50:44;99993.54;;;2.20;95.72
51147;BME280;37207;53.060;18.726;2022-12-07T01:53:12;99988.25;;;2.22;95.57
51147;BME280;37207;53.060;18.726;2022-12-07T01:55:42;99985.02;;;2.21;95.66
51147;BME280;37207;53.060;18.726;2022-12-07T01:58:11;99988.78;;;2.20;95.66
51147;BME280;37207;53.060;18.726;2022-12-07T02:00:38;99983.41;;;2.20;95.61
51147;BME280;37207;53.060;18.726;2022-12-07T02:03:16;99980.70;;;2.21;95.84
51147;BME280;37207;53.060;18.726;2022-12-07T02:05:46;99976.49;;;2.24;95.79
51147;BME280;37207;53.060;18.726;2022-12-07T02:08:15;99973.13;;;2.22;95.78
51147;BME280;37207;53.060;18.726;2022-12-07T02:10:43;99966.10;;;2.23;95.78
51147;BME280;37207;53.060;18.726;2022-12-07T02:13:13;99956.67;;;2.23;95.78
51147;BME280;37207;53.060;18.726;2022-12-07T02:16:06;99953.31;;;2.21;95.70
51147;BME280;37207;53.060;18.726;2022-12-07T02:18:52;99950.16;;;2.22;95.69
51147;BME280;37207;53.060;18.726;2022-12-07T02:21:56;99947.88;;;2.23;95.85
51147;BME280;37207;53.060;18.726;2022-12-07T02:27:10;99943.30;;;2.26;95.96
51147;BME280;37207;53.060;18.726;2022-12-07T02:32:51;99941.98;;;2.28;95.99
51147;BME280;37207;53.060;18.726;2022-12-07T02:35:25;99941.92;;;2.27;95.89
51147;BME280;37207;53.060;18.726;2022-12-07T02:38:02;99938.14;;;2.29;95.95
51147;BME280;37207;53.060;18.726;2022-12-07T02:40:39;99940.36;;;2.30;95.94
51147;BME280;37207;53.060;18.726;2022-12-07T02:43:18;99939.80;;;2.31;95.90
51147;BME280;37207;53.060;18.726;2022-12-07T02:45:47;99942.33;;;2.29;95.87
51147;BME280;37207;53.060;18.726;2022-12-07T02:48:16;99943.33;;;2.29;95.88
51147;BME280;37207;53.060;18.726;2022-12-07T02:50:51;99937.40;;;2.27;95.86
51147;BME280;37207;53.060;18.726;2022-12-07T02:53:33;99932.36;;;2.25;95.62
51147;BME280;37207;53.060;18.726;2022-12-07T02:59:34;99931.57;;;2.17;95.40
51147;BME280;37207;53.060;18.726;2022-12-07T03:05:02;99924.66;;;2.12;95.62
51147;BME280;37207;53.060;18.726;2022-12-07T03:10:35;99927.13;;;2.10;95.83
51147;BME280;37207;53.060;18.726;2022-12-07T03:16:17;99925.98;;;2.09;95.95
51147;BME280;37207;53.060;18.726;2022-12-07T03:18:59;99922.44;;;2.08;95.88
51147;BME280;37207;53.060;18.726;2022-12-07T03:21:31;99919.66;;;2.08;96.08
51147;BME280;37207;53.060;18.726;2022-12-07T03:24:00;99916.45;;;2.08;95.91
51147;BME280;37207;53.060;18.726;2022-12-07T03:26:34;99917.14;;;2.08;95.90
51147;BME280;37207;53.060;18.726;2022-12-07T03:29:11;99913.85;;;2.07;95.93
51147;BME280;37207;53.060;18.726;2022-12-07T03:31:42;99908.40;;;2.09;96.02
51147;BME280;37207;53.060;18.726;2022-12-07T03:34:18;99909.08;;;2.10;96.08
51147;BME280;37207;53.060;18.726;2022-12-07T03:37:07;99904.78;;;2.10;96.04
51147;BME280;37207;53.060;18.726;2022-12-07T03:39:41;99904.80;;;2.12;96.25
51147;BME280;37207;53.060;18.726;2022-12-07T03:42:11;99906.31;;;2.13;96.19
51147;BME280;37207;53.060;18.726;2022-12-07T03:44:38;99897.20;;;2.14;96.12
51147;BME280;37207;53.060;18.726;2022-12-07T03:49:51;99895.16;;;2.12;96.08
51147;BME280;37207;53.060;18.726;2022-12-07T03:52:28;99893.65;;;2.11;96.07
51147;BME280;37207;53.060;18.726;2022-12-07T03:55:23;99891.88;;;2.10;96.14
51147;BME280;37207;53.060;18.726;2022-12-07T03:57:55;99890.95;;;2.10;96.29
51147;BME280;37207;53.060;18.726;2022-12-07T04:00:23;99886.37;;;2.09;96.38
51147;BME280;37207;53.060;18.726;2022-12-07T04:02:54;99881.23;;;2.09;96.37
51147;BME280;37207;53.060;18.726;2022-12-07T04:05:21;99883.91;;;2.08;96.59
51147;BME280;37207;53.060;18.726;2022-12-07T04:07:47;99877.80;;;2.07;96.57
51147;BME280;37207;53.060;18.726;2022-12-07T04:10:14;99874.11;;;2.08;96.74
51147;BME280;37207;53.060;18.726;2022-12-07T04:12:41;99873.23;;;2.09;96.79
51147;BME280;37207;53.060;18.726;2022-12-07T04:15:08;99874.02;;;2.11;96.86
51147;BME280;37207;53.060;18.726;2022-12-07T04:17:35;99869.10;;;2.13;96.98
51147;BME280;37207;53.060;18.726;2022-12-07T04:20:03;99871.86;;;2.17;97.08
51147;BME280;37207;53.060;18.726;2022-12-07T04:22:30;99875.54;;;2.19;97.27
51147;BME280;37207;53.060;18.726;2022-12-07T04:24:57;99878.20;;;2.18;97.09
51147;BME280;37207;53.060;18.726;2022-12-07T04:27:23;99874.25;;;2.20;97.15
51147;BME280;37207;53.060;18.726;2022-12-07T04:29:50;99873.59;;;2.21;97.38
51147;BME280;37207;53.060;18.726;2022-12-07T04:32:16;99874.21;;;2.23;97.43
51147;BME280;37207;53.060;18.726;2022-12-07T04:34:43;99872.95;;;2.25;97.39
51147;BME280;37207;53.060;18.726;2022-12-07T04:37:10;99873.30;;;2.26;97.48
51147;BME280;37207;53.060;18.726;2022-12-07T04:39:36;99869.66;;;2.27;97.79
51147;BME280;37207;53.060;18.726;2022-12-07T04:42:03;99869.45;;;2.27;97.88
51147;BME280;37207;53.060;18.726;2022-12-07T04:44:30;99863.89;;;2.28;97.78
51147;BME280;37207;53.060;18.726;2022-12-07T04:46:57;99860.44;;;2.29;97.75
51147;BME280;37207;53.060;18.726;2022-12-07T04:49:24;99859.88;;;2.31;97.71
51147;BME280;37207;53.060;18.726;2022-12-07T04:51:51;99865.25;;;2.31;97.79
51147;BME280;37207;53.060;18.726;2022-12-07T04:54:18;99864.35;;;2.33;97.68
51147;BME280;37207;53.060;18.726;2022-12-07T04:56:45;99859.80;;;2.33;97.83
51147;BME280;37207;53.060;18.726;2022-12-07T04:59:12;99860.70;;;2.34;97.55
51147;BME280;37207;53.060;18.726;2022-12-07T05:01:39;99858.70;;;2.36;97.65
51147;BME280;37207;53.060;18.726;2022-12-07T05:04:05;99857.11;;;2.37;97.54
51147;BME280;37207;53.060;18.726;2022-12-07T05:06:32;99851.61;;;2.38;97.57
51147;BME280;37207;53.060;18.726;2022-12-07T05:08:59;99846.83;;;2.39;97.59
51147;BME280;37207;53.060;18.726;2022-12-07T05:11:25;99847.71;;;2.40;97.51
51147;BME280;37207;53.060;18.726;2022-12-07T05:14:17;99846.55;;;2.40;97.40
51147;BME280;37207;53.060;18.726;2022-12-07T05:16:46;99846.38;;;2.40;97.41
51147;BME280;37207;53.060;18.726;2022-12-07T05:19:13;99844.16;;;2.41;97.44
51147;BME280;37207;53.060;18.726;2022-12-07T05:21:40;99846.52;;;2.39;97.29
51147;BME280;37207;53.060;18.726;2022-12-07T05:24:09;99840.96;;;2.37;97.26
51147;BME280;37207;53.060;18.726;2022-12-07T05:26:36;99843.23;;;2.37;97.35
51147;BME280;37207;53.060;18.726;2022-12-07T05:29:03;99841.21;;;2.37;97.28
51147;BME280;37207;53.060;18.726;2022-12-07T05:31:30;99841.11;;;2.35;97.19
51147;BME280;37207;53.060;18.726;2022-12-07T05:33:57;99842.83;;;2.35;97.15
51147;BME280;37207;53.060;18.726;2022-12-07T05:36:23;99843.73;;;2.34;97.10
51147;BME280;37207;53.060;18.726;2022-12-07T05:38:50;99844.77;;;2.33;97.08
51147;BME280;37207;53.060;18.726;2022-12-07T05:41:18;99843.55;;;2.33;96.99
51147;BME280;37207;53.060;18.726;2022-12-07T05:44:04;99846.94;;;2.32;97.03
51147;BME280;37207;53.060;18.726;2022-12-07T05:46:32;99846.42;;;2.30;97.02
51147;BME280;37207;53.060;18.726;2022-12-07T05:48:58;99849.70;;;2.29;96.95
51147;BME280;37207;53.060;18.726;2022-12-07T05:51:25;99848.86;;;2.28;96.84
51147;BME280;37207;53.060;18.726;2022-12-07T05:53:52;99849.08;;;2.26;96.92
51147;BME280;37207;53.060;18.726;2022-12-07T05:56:18;99852.91;;;2.26;96.88
51147;BME280;37207;53.060;18.726;2022-12-07T05:58:45;99855.82;;;2.25;96.94
51147;BME280;37207;53.060;18.726;2022-12-07T06:01:30;99852.14;;;2.24;96.79
51147;BME280;37207;53.060;18.726;2022-12-07T06:03:56;99854.44;;;2.23;96.70
51147;BME280;37207;53.060;18.726;2022-12-07T06:06:23;99855.77;;;2.23;96.76
51147;BME280;37207;53.060;18.726;2022-12-07T06:08:49;99852.89;;;2.23;96.85
51147;BME280;37207;53.060;18.726;2022-12-07T06:11:16;99854.83;;;2.23;96.72
51147;BME280;37207;53.060;18.726;2022-12-07T06:14:01;99852.42;;;2.21;96.57
51147;BME280;37207;53.060;18.726;2022-12-07T06:16:28;99852.48;;;2.21;96.63
51147;BME280;37207;53.060;18.726;2022-12-07T06:18:54;99849.39;;;2.21;96.56
51147;BME280;37207;53.060;18.726;2022-12-07T06:21:21;99849.90;;;2.19;96.48
51147;BME280;37207;53.060;18.726;2022-12-07T06:23:47;99853.20;;;2.16;96.07
51147;BME280;37207;53.060;18.726;2022-12-07T06:26:14;99854.35;;;2.12;96.07
51147;BME280;37207;53.060;18.726;2022-12-07T06:28:41;99856.42;;;2.09;96.03
51147;BME280;37207;53.060;18.726;2022-12-07T06:31:07;99856.97;;;2.07;95.85
51147;BME280;37207;53.060;18.726;2022-12-07T06:33:34;99851.29;;;2.03;95.79
51147;BME280;37207;53.060;18.726;2022-12-07T06:36:01;99852.05;;;1.99;95.59
51147;BME280;37207;53.060;18.726;2022-12-07T06:38:27;99851.36;;;1.96;95.63
51147;BME280;37207;53.060;18.726;2022-12-07T06:40:54;99854.75;;;1.93;95.49
51147;BME280;37207;53.060;18.726;2022-12-07T06:43:21;99856.86;;;1.89;95.39
51147;BME280;37207;53.060;18.726;2022-12-07T06:45:47;99859.26;;;1.85;95.42
51147;BME280;37207;53.060;18.726;2022-12-07T06:48:14;99861.48;;;1.81;95.15
51147;BME280;37207;53.060;18.726;2022-12-07T06:50:40;99858.75;;;1.75;95.04
51147;BME280;37207;53.060;18.726;2022-12-07T06:53:07;99865.06;;;1.70;95.16
51147;BME280;37207;53.060;18.726;2022-12-07T06:55:34;99865.73;;;1.69;95.18
51147;BME280;37207;53.060;18.726;2022-12-07T06:58:01;99866.98;;;1.66;95.26
51147;BME280;37207;53.060;18.726;2022-12-07T07:00:29;99863.94;;;1.64;95.23
51147;BME280;37207;53.060;18.726;2022-12-07T07:02:56;99861.70;;;1.61;95.15
51147;BME280;37207;53.060;18.726;2022-12-07T07:05:22;99861.11;;;1.60;95.19
51147;BME280;37207;53.060;18.726;2022-12-07T07:07:49;99861.30;;;1.60;95.39
51147;BME280;37207;53.060;18.726;2022-12-07T07:10:16;99857.60;;;1.59;95.35
51147;BME280;37207;53.060;18.726;2022-12-07T07:12:43;99856.44;;;1.58;95.38
51147;BME280;37207;53.060;18.726;2022-12-07T07:15:10;99857.29;;;1.58;95.25
51147;BME280;37207;53.060;18.726;2022-12-07T07:17:37;99856.83;;;1.56;95.20
51147;BME280;37207;53.060;18.726;2022-12-07T07:20:05;99860.42;;;1.54;94.91
51147;BME280;37207;53.060;18.726;2022-12-07T07:22:31;99861.93;;;1.51;94.81
51147;BME280;37207;53.060;18.726;2022-12-07T07:24:58;99859.41;;;1.49;94.90
51147;BME280;37207;53.060;18.726;2022-12-07T07:27:24;99861.69;;;1.48;94.91
51147;BME280;37207;53.060;18.726;2022-12-07T07:29:51;99862.59;;;1.47;94.74
51147;BME280;37207;53.060;18.726;2022-12-07T07:32:17;99864.29;;;1.48;94.79
51147;BME280;37207;53.060;18.726;2022-12-07T07:34:44;99864.33;;;1.46;94.78
51147;BME280;37207;53.060;18.726;2022-12-07T07:37:10;99865.84;;;1.45;94.71
51147;BME280;37207;53.060;18.726;2022-12-07T07:39:38;99871.45;;;1.45;94.69
51147;BME280;37207;53.060;18.726;2022-12-07T07:42:05;99873.35;;;1.44;94.63
51147;BME280;37207;53.060;18.726;2022-12-07T07:44:34;99870.11;;;1.46;94.87
51147;BME280;37207;53.060;18.726;2022-12-07T07:47:00;99866.98;;;1.46;94.89
51147;BME280;37207;53.060;18.726;2022-12-07T07:49:27;99865.85;;;1.47;95.05
51147;BME280;37207;53.060;18.726;2022-12-07T07:51:54;99872.15;;;1.48;94.72
51147;BME280;37207;53.060;18.726;2022-12-07T07:54:20;99872.33;;;1.44;94.35
51147;BME280;37207;53.060;18.726;2022-12-07T07:56:47;99873.34;;;1.42;94.43
51147;BME280;37207;53.060;18.726;2022-12-07T07:59:15;99873.54;;;1.41;94.54
51147;BME280;37207;53.060;18.726;2022-12-07T08:01:41;99877.93;;;1.39;94.66
51147;BME280;37207;53.060;18.726;2022-12-07T08:04:08;99876.83;;;1.38;94.61
51147;BME280;37207;53.060;18.726;2022-12-07T08:06:34;99877.88;;;1.37;94.54
51147;BME280;37207;53.060;18.726;2022-12-07T08:09:02;99874.61;;;1.34;94.43
51147;BME280;37207;53.060;18.726;2022-12-07T08:11:28;99875.81;;;1.33;94.43
51147;BME280;37207;53.060;18.726;2022-12-07T08:13:55;99878.89;;;1.32;94.34
51147;BME280;37207;53.060;18.726;2022-12-07T08:16:21;99881.86;;;1.31;94.36
51147;BME280;37207;53.060;18.726;2022-12-07T08:18:48;99879.60;;;1.32;94.41
51147;BME280;37207;53.060;18.726;2022-12-07T08:21:15;99883.22;;;1.30;94.43
51147;BME280;37207;53.060;18.726;2022-12-07T08:23:42;99881.56;;;1.28;94.26
51147;BME280;37207;53.060;18.726;2022-12-07T08:26:11;99880.65;;;1.28;94.25
51147;BME280;37207;53.060;18.726;2022-12-07T08:28:38;99879.61;;;1.29;94.43
51147;BME280;37207;53.060;18.726;2022-12-07T08:31:16;99879.95;;;1.30;94.49
51147;BME280;37207;53.060;18.726;2022-12-07T08:33:45;99879.12;;;1.35;94.68
51147;BME280;37207;53.060;18.726;2022-12-07T08:36:13;99877.55;;;1.37;94.65
51147;BME280;37207;53.060;18.726;2022-12-07T08:38:40;99876.08;;;1.41;94.58
51147;BME280;37207;53.060;18.726;2022-12-07T08:41:08;99872.86;;;1.47;94.58
51147;BME280;37207;53.060;18.726;2022-12-07T08:43:35;99872.75;;;1.53;94.61
51147;BME280;37207;53.060;18.726;2022-12-07T08:46:13;99870.99;;;1.58;94.50
51147;BME280;37207;53.060;18.726;2022-12-07T08:48:56;99875.82;;;1.67;94.45
51147;BME280;37207;53.060;18.726;2022-12-07T08:51:25;99875.16;;;1.77;94.25
51147;BME280;37207;53.060;18.726;2022-12-07T08:53:52;99873.02;;;1.85;94.22
51147;BME280;37207;53.060;18.726;2022-12-07T08:56:20;99873.98;;;1.91;94.07
51147;BME280;37207;53.060;18.726;2022-12-07T08:58:48;99870.98;;;1.98;94.17
51147;BME280;37207;53.060;18.726;2022-12-07T09:01:14;99871.64;;;2.04;94.06
51147;BME280;37207;53.060;18.726;2022-12-07T09:03:41;99864.97;;;2.05;93.51
51147;BME280;37207;53.060;18.726;2022-12-07T09:06:08;99861.11;;;2.04;93.19
51147;BME280;37207;53.060;18.726;2022-12-07T09:08:37;99861.96;;;2.05;93.14
51147;BME280;37207;53.060;18.726;2022-12-07T09:11:05;99857.95;;;2.06;93.06
51147;BME280;37207;53.060;18.726;2022-12-07T09:13:32;99852.52;;;2.09;93.00
51147;BME280;37207;53.060;18.726;2022-12-07T09:15:58;99854.52;;;2.12;93.05
51147;BME280;37207;53.060;18.726;2022-12-07T09:18:25;99848.58;;;2.17;93.04
51147;BME280;37207;53.060;18.726;2022-12-07T09:20:51;99843.90;;;2.22;93.17
51147;BME280;37207;53.060;18.726;2022-12-07T09:23:18;99839.19;;;2.28;93.20
51147;BME280;37207;53.060;18.726;2022-12-07T09:25:45;99838.27;;;2.34;93.20
51147;BME280;37207;53.060;18.726;2022-12-07T09:28:11;99832.66;;;2.41;93.22
51147;BME280;37207;53.060;18.726;2022-12-07T09:30:38;99830.23;;;2.44;92.98
51147;BME280;37207;53.060;18.726;2022-12-07T09:33:04;99829.52;;;2.47;93.01
51147;BME280;37207;53.060;18.726;2022-12-07T09:35:31;99828.02;;;2.48;92.80
51147;BME280;37207;53.060;18.726;2022-12-07T09:37:57;99825.14;;;2.45;92.40
51147;BME280;37207;53.060;18.726;2022-12-07T09:40:24;99823.68;;;2.41;92.28
51147;BME280;37207;53.060;18.726;2022-12-07T09:42:53;99819.77;;;2.36;92.14
51147;BME280;37207;53.060;18.726;2022-12-07T09:45:37;99821.37;;;2.32;92.28
51147;BME280;37207;53.060;18.726;2022-12-07T09:48:05;99816.95;;;2.27;91.99
51147;BME280;37207;53.060;18.726;2022-12-07T09:50:39;99817.95;;;2.22;92.03
51147;BME280;37207;53.060;18.726;2022-12-07T09:53:14;99811.40;;;2.21;92.31
51147;BME280;37207;53.060;18.726;2022-12-07T09:55:42;99807.38;;;2.20;92.44
51147;BME280;37207;53.060;18.726;2022-12-07T09:58:23;99804.62;;;2.21;92.46
51147;BME280;37207;53.060;18.726;2022-12-07T10:00:53;99805.16;;;2.21;92.29
51147;BME280;37207;53.060;18.726;2022-12-07T10:03:22;99798.90;;;2.22;92.55
51147;BME280;37207;53.060;18.726;2022-12-07T10:05:50;99798.12;;;2.24;92.50
51147;BME280;37207;53.060;18.726;2022-12-07T10:08:18;99795.76;;;2.24;92.29
51147;BME280;37207;53.060;18.726;2022-12-07T10:10:48;99795.08;;;2.25;92.26
51147;BME280;37207;53.060;18.726;2022-12-07T10:13:37;99789.88;;;2.27;92.16
51147;BME280;37207;53.060;18.726;2022-12-07T10:16:05;99790.13;;;2.29;92.21
51147;BME280;37207;53.060;18.726;2022-12-07T10:18:42;99788.00;;;2.32;92.26
51147;BME280;37207;53.060;18.726;2022-12-07T10:21:18;99789.48;;;2.33;92.16
51147;BME280;37207;53.060;18.726;2022-12-07T10:26:35;99785.36;;;2.37;92.35
51147;BME280;37207;53.060;18.726;2022-12-07T10:29:29;99779.43;;;2.43;92.58
51147;BME280;37207;53.060;18.726;2022-12-07T10:32:32;99784.21;;;2.49;92.43
51147;BME280;37207;53.060;18.726;2022-12-07T10:35:20;99777.92;;;2.50;92.38
51147;BME280;37207;53.060;18.726;2022-12-07T10:37:48;99771.14;;;2.52;92.34
51147;BME280;37207;53.060;18.726;2022-12-07T10:40:31;99769.95;;;2.55;92.37
51147;BME280;37207;53.060;18.726;2022-12-07T10:45:29;99768.44;;;2.56;92.37
51147;BME280;37207;53.060;18.726;2022-12-07T11:01:45;99743.27;;;2.46;92.42
51147;BME280;37207;53.060;18.726;2022-12-07T11:07:27;99737.86;;;2.47;92.25
51147;BME280;37207;53.060;18.726;2022-12-07T11:10:22;99738.73;;;2.41;92.12
51147;BME280;37207;53.060;18.726;2022-12-07T11:24:19;99722.55;;;2.52;92.44
51147;BME280;37207;53.060;18.726;2022-12-07T11:29:47;99721.09;;;2.52;92.41
51147;BME280;37207;53.060;18.726;2022-12-07T11:38:26;99712.95;;;2.51;92.16
51147;BME280;37207;53.060;18.726;2022-12-07T11:41:01;99705.75;;;2.54;92.29
51147;BME280;37207;53.060;18.726;2022-12-07T11:46:27;99698.56;;;2.61;92.24
51147;BME280;37207;53.060;18.726;2022-12-07T11:49:03;99701.82;;;2.58;91.97
51147;BME280;37207;53.060;18.726;2022-12-07T11:51:36;99695.41;;;2.55;91.96
51147;BME280;37207;53.060;18.726;2022-12-07T11:54:15;99689.02;;;2.53;91.94
51147;BME280;37207;53.060;18.726;2022-12-07T11:56:44;99689.77;;;2.53;91.99
51147;BME280;37207;53.060;18.726;2022-12-07T12:00:12;99689.52;;;2.52;92.00
51147;BME280;37207;53.060;18.726;2022-12-07T12:02:24;99684.92;;;2.50;92.18
51147;BME280;37207;53.060;18.726;2022-12-07T12:07:29;99677.90;;;2.49;92.20
51147;BME280;37207;53.060;18.726;2022-12-07T12:10:02;99677.48;;;2.49;92.41
51147;BME280;37207;53.060;18.726;2022-12-07T12:15:47;99678.17;;;2.52;92.44
51147;BME280;37207;53.060;18.726;2022-12-07T12:21:00;99665.18;;;2.53;92.48
51147;BME280;37207;53.060;18.726;2022-12-07T12:23:57;99661.42;;;2.52;92.51
51147;BME280;37207;53.060;18.726;2022-12-07T12:26:27;99655.84;;;2.51;92.54
51147;BME280;37207;53.060;18.726;2022-12-07T12:29:02;99654.00;;;2.49;92.40
51147;BME280;37207;53.060;18.726;2022-12-07T12:31:33;99656.05;;;2.46;92.28
51147;BME280;37207;53.060;18.726;2022-12-07T12:37:40;99645.70;;;2.40;92.48
51147;BME280;37207;53.060;18.726;2022-12-07T12:42:47;99636.51;;;2.34;92.32
51147;BME280;37207;53.060;18.726;2022-12-07T12:45:23;99637.50;;;2.33;92.41
51147;BME280;37207;53.060;18.726;2022-12-07T12:48:00;99636.26;;;2.31;92.41
51147;BME280;37207;53.060;18.726;2022-12-07T12:50:34;99633.89;;;2.28;92.26
51147;BME280;37207;53.060;18.726;2022-12-07T12:53:21;99629.45;;;2.26;92.40
51147;BME280;37207;53.060;18.726;2022-12-07T13:03:56;99628.48;;;2.22;92.32
51147;BME280;37207;53.060;18.726;2022-12-07T13:08:54;99619.52;;;2.18;92.25
51147;BME280;37207;53.060;18.726;2022-12-07T13:11:33;99617.44;;;2.16;92.27
51147;BME280;37207;53.060;18.726;2022-12-07T13:14:35;99617.10;;;2.14;92.41
51147;BME280;37207;53.060;18.726;2022-12-07T13:25:02;99615.84;;;2.10;92.74
51147;BME280;37207;53.060;18.726;2022-12-07T13:27:31;99615.88;;;2.12;92.76
51147;BME280;37207;53.060;18.726;2022-12-07T13:29:58;99614.36;;;2.12;92.74
51147;BME280;37207;53.060;18.726;2022-12-07T13:32:27;99612.05;;;2.11;92.62
51147;BME280;37207;53.060;18.726;2022-12-07T13:34:54;99615.75;;;2.11;92.63
51147;BME280;37207;53.060;18.726;2022-12-07T13:37:29;99618.02;;;2.10;92.50
51147;BME280;37207;53.060;18.726;2022-12-07T13:39:59;99615.68;;;2.08;92.64
51147;BME280;37207;53.060;18.726;2022-12-07T13:44:58;99613.91;;;2.07;92.63
51147;BME280;37207;53.060;18.726;2022-12-07T13:47:36;99617.36;;;2.06;92.69
51147;BME280;37207;53.060;18.726;2022-12-07T13:50:31;99615.00;;;2.05;92.77
51147;BME280;37207;53.060;18.726;2022-12-07T13:52:59;99612.33;;;2.03;92.82
51147;BME280;37207;53.060;18.726;2022-12-07T13:55:29;99618.05;;;2.02;92.80
51147;BME280;37207;53.060;18.726;2022-12-07T13:57:56;99619.89;;;2.01;92.85
51147;BME280;37207;53.060;18.726;2022-12-07T14:00:25;99622.21;;;1.99;92.81
51147;BME280;37207;53.060;18.726;2022-12-07T14:05:39;99618.34;;;1.97;92.91
51147;BME280;37207;53.060;18.726;2022-12-07T14:10:39;99615.42;;;1.96;92.98
51147;BME280;37207;53.060;18.726;2022-12-07T14:15:51;99618.58;;;1.97;93.02
51147;BME280;37207;53.060;18.726;2022-12-07T14:18:27;99616.30;;;1.97;93.16
51147;BME280;37207;53.060;18.726;2022-12-07T14:23:38;99616.55;;;1.99;93.14
51147;BME280;37207;53.060;18.726;2022-12-07T14:26:19;99608.02;;;1.98;93.12
51147;BME280;37207;53.060;18.726;2022-12-07T14:28:47;99611.91;;;1.98;93.31
51147;BME280;37207;53.060;18.726;2022-12-07T14:31:16;99614.39;;;1.98;93.38
51147;BME280;37207;53.060;18.726;2022-12-07T14:33:44;99612.98;;;1.99;93.36
51147;BME280;37207;53.060;18.726;2022-12-07T14:36:12;99616.70;;;1.99;93.42
51147;BME280;37207;53.060;18.726;2022-12-07T14:38:39;99621.36;;;1.99;93.41
51147;BME280;37207;53.060;18.726;2022-12-07T14:41:13;99623.21;;;1.98;93.38
51147;BME280;37207;53.060;18.726;2022-12-07T14:44:00;99623.04;;;1.96;93.31
51147;BME280;37207;53.060;18.726;2022-12-07T14:46:26;99618.79;;;1.93;93.15
51147;BME280;37207;53.060;18.726;2022-12-07T14:48:53;99618.28;;;1.91;93.21
51147;BME280;37207;53.060;18.726;2022-12-07T14:51:19;99616.72;;;1.89;93.41
51147;BME280;37207;53.060;18.726;2022-12-07T14:53:50;99617.58;;;1.87;93.22
51147;BME280;37207;53.060;18.726;2022-12-07T14:56:17;99616.61;;;1.84;93.21
51147;BME280;37207;53.060;18.726;2022-12-07T14:58:44;99619.73;;;1.81;93.29
51147;BME280;37207;53.060;18.726;2022-12-07T15:01:11;99618.31;;;1.80;93.46
51147;BME280;37207;53.060;18.726;2022-12-07T15:03:37;99617.56;;;1.77;93.33
51147;BME280;37207;53.060;18.726;2022-12-07T15:06:06;99619.89;;;1.75;93.42
51147;BME280;37207;53.060;18.726;2022-12-07T15:08:33;99618.66;;;1.73;93.33
51147;BME280;37207;53.060;18.726;2022-12-07T15:11:00;99620.39;;;1.71;93.46
51147;BME280;37207;53.060;18.726;2022-12-07T15:13:27;99618.64;;;1.68;93.60